Station Historical Data
Daily Summary for January 12, 2019 Units:  Both    English   Metric
« Previous Day
Next Day »
Daily Weekly Monthly Yearly Custom
  High: Low: Average:
Temperature: TemperatureF °F /  -17.8 °C 37.5 °F /  3.1 °C 44.7 °F /  7.1 °C
Dew Point: DewpointF °F /  -17.8 °C 31.1 °F /  -0.5 °C 37.3 °F /  2.9 °C
Humidity: Humidity % 56 % 76 %
Wind Speed: WindSpeedMPH mph /  0 km/h - 2.3 mph /  3.7 km/h
Wind Gust: WindSpeedGustMPH mph /  0 km/h - -
Wind:- - SE
Pressure: PressureIn in /  0 hPa 30.02 in /  1016.5 hPa -
Precipitation: 0.22 in /  5.59 mm    
Historical Graphs
 
 
Tabular Data for January 12, 2019
Time Temperature Dew Point Pressure Wind Wind Speed Wind Gust Humidity Rainfall Rate (Hourly) solar Conditions
TemperatureF °F /  -17.8 °C DewpointF °F /  -17.8 °C PressureIn in /  0 hPa Calm     Humidity % HourlyPrecipIn in /  0 mm SolarRadiationWatts/m^2 W/m2 Conditions
00:04 37.5 °F /  3.1 °C 32.5 °F /  0.3 °C 30.23 in /  1023.6 hPa ESE 3.5 mph /  5.6 km/h 1.7 mph /  2.7 km/h 82 % 0.01 in /  0.25 mm 0.00 W/m2 RA
00:09 37.5 °F /  3.1 °C 32.8 °F /  0.4 °C 30.22 in /  1023.2 hPa Calm     83 % 0.01 in /  0.25 mm 0.00 W/m2 RA
00:14 37.5 °F /  3.1 °C 32.8 °F /  0.4 °C 30.23 in /  1023.6 hPa East 3.5 mph /  5.6 km/h 2.3 mph /  3.7 km/h 83 % 0.01 in /  0.25 mm 0.00 W/m2 OVC
00:19 37.6 °F /  3.1 °C 32.6 °F /  0.3 °C 30.23 in /  1023.6 hPa East 3.5 mph /  5.6 km/h 1.9 mph /  3.1 km/h 82 % 0.01 in /  0.25 mm 0.00 W/m2 OVC
00:24 37.7 °F /  3.2 °C 32.7 °F /  0.4 °C 30.22 in /  1023.2 hPa ESE 3.5 mph /  5.6 km/h 2.1 mph /  3.4 km/h 82 % 0.01 in /  0.25 mm 0.00 W/m2 OVC
00:29 37.8 °F /  3.2 °C 32.8 °F /  0.4 °C 30.22 in /  1023.2 hPa ESE 2.3 mph /  3.7 km/h 1.3 mph /  2.1 km/h 82 % 0.01 in /  0.25 mm 0.00 W/m2 OVC
00:34 37.9 °F /  3.3 °C 33.2 °F /  0.7 °C 30.23 in /  1023.6 hPa ESE 2.3 mph /  3.7 km/h 1.1 mph /  1.8 km/h 83 % 0.00 in /  0 mm 0.00 W/m2 OVC
00:39 37.9 °F /  3.3 °C 33.2 °F /  0.7 °C 30.23 in /  1023.6 hPa Calm     83 % 0.00 in /  0 mm 0.00 W/m2 OVC
00:44 37.9 °F /  3.3 °C 33.5 °F /  0.8 °C 30.22 in /  1023.2 hPa ESE 2.3 mph /  3.7 km/h 1.3 mph /  2.1 km/h 84 % 0.00 in /  0 mm 0.00 W/m2 OVC
00:49 38.0 °F /  3.3 °C 33.6 °F /  0.9 °C 30.22 in /  1023.2 hPa Calm     84 % 0.00 in /  0 mm 0.00 W/m2 OVC
00:54 38.0 °F /  3.3 °C 33.6 °F /  0.9 °C 30.22 in /  1023.2 hPa Calm     84 % 0.00 in /  0 mm 0.00 W/m2 OVC
00:59 38.0 °F /  3.3 °C 33.6 °F /  0.9 °C 30.22 in /  1023.2 hPa Calm     84 % 0.00 in /  0 mm 0.00 W/m2 OVC
01:04 38.1 °F /  3.4 °C 34.0 °F /  1.1 °C 30.21 in /  1022.9 hPa Calm     85 % 0.00 in /  0 mm 0.00 W/m2 OVC
01:09 38.1 °F /  3.4 °C 34.0 °F /  1.1 °C 30.21 in /  1022.9 hPa ESE 3.5 mph /  5.6 km/h 1.6 mph /  2.6 km/h 85 % 0.00 in /  0 mm 0.00 W/m2 OVC
01:14 38.1 °F /  3.4 °C 34.0 °F /  1.1 °C 30.21 in /  1022.9 hPa ESE 3.5 mph /  5.6 km/h 2.6 mph /  4.2 km/h 85 % 0.00 in /  0 mm 0.00 W/m2 OVC
01:19 38.2 °F /  3.4 °C 33.5 °F /  0.8 °C 30.21 in /  1022.9 hPa ESE 3.5 mph /  5.6 km/h 2.5 mph /  4 km/h 83 % 0.00 in /  0 mm 0.00 W/m2 OVC
01:24 38.8 °F /  3.8 °C 33.5 °F /  0.8 °C 30.21 in /  1022.9 hPa ESE 5.8 mph /  9.3 km/h 3.0 mph /  4.8 km/h 81 % 0.00 in /  0 mm 0.00 W/m2 OVC
01:29 39.3 °F /  4.1 °C 33.3 °F /  0.7 °C 30.21 in /  1022.9 hPa ESE 3.5 mph /  5.6 km/h 2.8 mph /  4.5 km/h 79 % 0.00 in /  0 mm 0.00 W/m2 OVC
01:34 40.0 °F /  4.4 °C 33.4 °F /  0.8 °C 30.20 in /  1022.6 hPa ESE 4.0 mph /  6.4 km/h 2.9 mph /  4.7 km/h 77 % 0.01 in /  0.25 mm 0.00 W/m2 RA
01:39 40.4 °F /  4.7 °C 33.4 °F /  0.8 °C 30.21 in /  1022.9 hPa ESE 3.5 mph /  5.6 km/h 2.8 mph /  4.5 km/h 76 % 0.01 in /  0.25 mm 0.00 W/m2 RA
01:44 40.8 °F /  4.9 °C 33.5 °F /  0.8 °C 30.21 in /  1022.9 hPa ESE 3.5 mph /  5.6 km/h 2.1 mph /  3.4 km/h 75 % 0.01 in /  0.25 mm 0.00 W/m2 OVC
01:49 41.1 °F /  5.1 °C 33.4 °F /  0.8 °C 30.20 in /  1022.6 hPa SE 3.5 mph /  5.6 km/h 2.4 mph /  3.9 km/h 74 % 0.01 in /  0.25 mm 0.00 W/m2 OVC
01:54 41.3 °F /  5.2 °C 33.6 °F /  0.9 °C 30.21 in /  1022.9 hPa ESE 3.5 mph /  5.6 km/h 1.7 mph /  2.7 km/h 74 % 0.01 in /  0.25 mm 0.00 W/m2 OVC
01:59 41.6 °F /  5.3 °C 33.2 °F /  0.7 °C 30.21 in /  1022.9 hPa SE 3.5 mph /  5.6 km/h 2.5 mph /  4 km/h 72 % 0.01 in /  0.25 mm 0.00 W/m2 OVC
02:04 42.0 °F /  5.6 °C 33.3 °F /  0.7 °C 30.21 in /  1022.9 hPa SE 3.5 mph /  5.6 km/h 2.5 mph /  4 km/h 71 % 0.01 in /  0.25 mm 0.00 W/m2 OVC
02:09 42.3 °F /  5.7 °C 33.2 °F /  0.7 °C 30.21 in /  1022.9 hPa SE 3.5 mph /  5.6 km/h 2.2 mph /  3.5 km/h 70 % 0.01 in /  0.25 mm 0.00 W/m2 OVC
02:14 42.7 °F /  5.9 °C 33.2 °F /  0.7 °C 30.21 in /  1022.9 hPa ESE 3.5 mph /  5.6 km/h 2.2 mph /  3.5 km/h 69 % 0.01 in /  0.25 mm 0.00 W/m2 OVC
02:19 42.9 °F /  6.1 °C 33.1 °F /  0.6 °C 30.20 in /  1022.6 hPa SE 3.5 mph /  5.6 km/h 2.2 mph /  3.5 km/h 68 % 0.01 in /  0.25 mm 0.00 W/m2 OVC
02:24 43.2 °F /  6.2 °C 33.0 °F /  0.6 °C 30.20 in /  1022.6 hPa ESE 3.5 mph /  5.6 km/h 2.2 mph /  3.5 km/h 67 % 0.01 in /  0.25 mm 0.00 W/m2 OVC
02:29 43.4 °F /  6.3 °C 32.8 °F /  0.4 °C 30.21 in /  1022.9 hPa SE 3.5 mph /  5.6 km/h 1.6 mph /  2.6 km/h 66 % 0.01 in /  0.25 mm 0.00 W/m2 OVC
02:34 43.6 °F /  6.4 °C 33.0 °F /  0.6 °C 30.21 in /  1022.9 hPa SE 4.0 mph /  6.4 km/h 2.2 mph /  3.5 km/h 66 % 0.00 in /  0 mm 0.00 W/m2 OVC
02:39 43.8 °F /  6.6 °C 32.8 °F /  0.4 °C 30.21 in /  1022.9 hPa SE 2.3 mph /  3.7 km/h 1.5 mph /  2.4 km/h 65 % 0.00 in /  0 mm 0.00 W/m2 OVC
02:44 43.9 °F /  6.6 °C 33.3 °F /  0.7 °C 30.20 in /  1022.6 hPa SE 2.3 mph /  3.7 km/h 1.4 mph /  2.3 km/h 66 % 0.00 in /  0 mm 0.00 W/m2 OVC
02:49 44.0 °F /  6.7 °C 33.0 °F /  0.6 °C 30.20 in /  1022.6 hPa SE 2.3 mph /  3.7 km/h 1.8 mph /  2.9 km/h 65 % 0.00 in /  0 mm 0.00 W/m2 OVC
02:54 44.1 °F /  6.7 °C 32.3 °F /  0.2 °C 30.19 in /  1022.2 hPa SE 3.5 mph /  5.6 km/h 2.0 mph /  3.2 km/h 63 % 0.00 in /  0 mm 0.00 W/m2 OVC
02:59 44.2 °F /  6.8 °C 33.2 °F /  0.7 °C 30.20 in /  1022.6 hPa SSE 2.3 mph /  3.7 km/h 0.4 mph /  0.6 km/h 65 % 0.00 in /  0 mm 0.00 W/m2 OVC
03:04 44.3 °F /  6.8 °C 32.5 °F /  0.3 °C 30.20 in /  1022.6 hPa SE 3.5 mph /  5.6 km/h 2.4 mph /  3.9 km/h 63 % 0.00 in /  0 mm 0.00 W/m2 OVC
03:09 44.6 °F /  7 °C 32.4 °F /  0.2 °C 30.19 in /  1022.2 hPa SE 2.3 mph /  3.7 km/h 1.1 mph /  1.8 km/h 62 % 0.00 in /  0 mm 0.00 W/m2 OVC
03:14 44.7 °F /  7.1 °C 32.5 °F /  0.3 °C 30.19 in /  1022.2 hPa SE 3.5 mph /  5.6 km/h 2.1 mph /  3.4 km/h 62 % 0.00 in /  0 mm 0.00 W/m2 OVC
03:19 44.8 °F /  7.1 °C 32.6 °F /  0.3 °C 30.19 in /  1022.2 hPa SE 3.5 mph /  5.6 km/h 2.0 mph /  3.2 km/h 62 % 0.00 in /  0 mm 0.00 W/m2 OVC
03:24 44.9 °F /  7.2 °C 32.3 °F /  0.2 °C 30.20 in /  1022.6 hPa SE 3.5 mph /  5.6 km/h 1.5 mph /  2.4 km/h 61 % 0.00 in /  0 mm 0.00 W/m2 OVC
03:29 45.0 °F /  7.2 °C 31.9 °F /  -0.1 °C 30.19 in /  1022.2 hPa SE 2.3 mph /  3.7 km/h 2.0 mph /  3.2 km/h 60 % 0.00 in /  0 mm 0.00 W/m2 OVC
03:34 45.1 °F /  7.3 °C 32.0 °F /  0 °C 30.19 in /  1022.2 hPa ESE 3.5 mph /  5.6 km/h 2.1 mph /  3.4 km/h 60 % 0.00 in /  0 mm 0.00 W/m2 OVC
03:39 45.3 °F /  7.4 °C 31.8 °F /  -0.1 °C 30.19 in /  1022.2 hPa SE 3.5 mph /  5.6 km/h 2.3 mph /  3.7 km/h 59 % 0.00 in /  0 mm 0.00 W/m2 OVC
03:44 45.4 °F /  7.4 °C 31.5 °F /  -0.3 °C 30.18 in /  1021.9 hPa SE 3.5 mph /  5.6 km/h 2.3 mph /  3.7 km/h 58 % 0.00 in /  0 mm 0.00 W/m2 OVC
03:49 45.6 °F /  7.6 °C 31.7 °F /  -0.2 °C 30.19 in /  1022.2 hPa ESE 3.5 mph /  5.6 km/h 2.2 mph /  3.5 km/h 58 % 0.00 in /  0 mm 0.00 W/m2 OVC
03:54 45.7 °F /  7.6 °C 31.8 °F /  -0.1 °C 30.19 in /  1022.2 hPa SE 3.5 mph /  5.6 km/h 1.4 mph /  2.3 km/h 58 % 0.00 in /  0 mm 0.00 W/m2 OVC
03:59 45.7 °F /  7.6 °C 31.8 °F /  -0.1 °C 30.19 in /  1022.2 hPa SE 3.5 mph /  5.6 km/h 1.8 mph /  2.9 km/h 58 % 0.00 in /  0 mm 0.00 W/m2 OVC
04:04 45.8 °F /  7.7 °C 31.4 °F /  -0.3 °C 30.20 in /  1022.6 hPa SSE 3.5 mph /  5.6 km/h 2.6 mph /  4.2 km/h 57 % 0.00 in /  0 mm 0.00 W/m2 OVC
04:09 45.9 °F /  7.7 °C 31.9 °F /  -0.1 °C 30.19 in /  1022.2 hPa SE 3.5 mph /  5.6 km/h 2.2 mph /  3.5 km/h 58 % 0.00 in /  0 mm 0.00 W/m2 OVC
04:14 45.9 °F /  7.7 °C 31.5 °F /  -0.3 °C 30.20 in /  1022.6 hPa SE 3.5 mph /  5.6 km/h 1.7 mph /  2.7 km/h 57 % 0.00 in /  0 mm 0.00 W/m2 OVC
04:19 45.9 °F /  7.7 °C 31.9 °F /  -0.1 °C 30.19 in /  1022.2 hPa ESE 3.5 mph /  5.6 km/h 2.5 mph /  4 km/h 58 % 0.00 in /  0 mm 0.00 W/m2 OVC
04:24 45.9 °F /  7.7 °C 31.1 °F /  -0.5 °C 30.18 in /  1021.9 hPa SE 6.9 mph /  11.1 km/h 3.4 mph /  5.5 km/h 56 % 0.00 in /  0 mm 0.00 W/m2 OVC
04:29 45.9 °F /  7.7 °C 31.5 °F /  -0.3 °C 30.18 in /  1021.9 hPa ESE 4.0 mph /  6.4 km/h 2.9 mph /  4.7 km/h 57 % 0.00 in /  0 mm 0.00 W/m2 OVC
04:34 46.0 °F /  7.8 °C 31.6 °F /  -0.2 °C 30.18 in /  1021.9 hPa ESE 3.5 mph /  5.6 km/h 2.6 mph /  4.2 km/h 57 % 0.00 in /  0 mm 0.00 W/m2 OVC
04:39 46.0 °F /  7.8 °C 31.2 °F /  -0.4 °C 30.18 in /  1021.9 hPa SSE 6.9 mph /  11.1 km/h 3.4 mph /  5.5 km/h 56 % 0.00 in /  0 mm 0.00 W/m2 OVC
04:44 46.0 °F /  7.8 °C 31.6 °F /  -0.2 °C 30.17 in /  1021.6 hPa SSE 2.3 mph /  3.7 km/h 1.1 mph /  1.8 km/h 57 % 0.00 in /  0 mm 0.00 W/m2 OVC
04:49 46.0 °F /  7.8 °C 31.6 °F /  -0.2 °C 30.19 in /  1022.2 hPa SE 3.5 mph /  5.6 km/h 1.1 mph /  1.8 km/h 57 % 0.00 in /  0 mm 0.00 W/m2 OVC
04:54 45.9 °F /  7.7 °C 31.5 °F /  -0.3 °C 30.19 in /  1022.2 hPa NNW 2.0 mph /  3.2 km/h 0.1 mph /  0.2 km/h 57 % 0.00 in /  0 mm 0.00 W/m2 OVC
04:59 45.9 °F /  7.7 °C 31.9 °F /  -0.1 °C 30.19 in /  1022.2 hPa East 2.3 mph /  3.7 km/h 1.1 mph /  1.8 km/h 58 % 0.00 in /  0 mm 0.00 W/m2 OVC
05:04 45.8 °F /  7.7 °C 31.9 °F /  -0.1 °C 30.20 in /  1022.6 hPa SSE 2.3 mph /  3.7 km/h 0.9 mph /  1.4 km/h 58 % 0.00 in /  0 mm 0.00 W/m2 OVC
05:09 45.8 °F /  7.7 °C 31.9 °F /  -0.1 °C 30.19 in /  1022.2 hPa SSE 2.3 mph /  3.7 km/h 1.7 mph /  2.7 km/h 58 % 0.00 in /  0 mm 0.00 W/m2 OVC
05:14 45.7 °F /  7.6 °C 32.2 °F /  0.1 °C 30.18 in /  1021.9 hPa ESE 4.0 mph /  6.4 km/h 3.4 mph /  5.5 km/h 59 % 0.00 in /  0 mm 0.00 W/m2 OVC
05:19 45.5 °F /  7.5 °C 32.8 °F /  0.4 °C 30.17 in /  1021.6 hPa ESE 4.0 mph /  6.4 km/h 3.8 mph /  6.1 km/h 61 % 0.00 in /  0 mm 0.00 W/m2 OVC
05:24 45.4 °F /  7.4 °C 32.7 °F /  0.4 °C 30.18 in /  1021.9 hPa SE 3.5 mph /  5.6 km/h 2.8 mph /  4.5 km/h 61 % 0.00 in /  0 mm 0.00 W/m2 OVC
05:29 45.2 °F /  7.3 °C 32.9 °F /  0.5 °C 30.18 in /  1021.9 hPa ESE 6.9 mph /  11.1 km/h 2.9 mph /  4.7 km/h 62 % 0.00 in /  0 mm 0.00 W/m2 OVC
05:34 45.1 °F /  7.3 °C 32.4 °F /  0.2 °C 30.18 in /  1021.9 hPa SE 5.8 mph /  9.3 km/h 2.7 mph /  4.3 km/h 61 % 0.00 in /  0 mm 0.00 W/m2 OVC
05:39 45.0 °F /  7.2 °C 33.5 °F /  0.8 °C 30.18 in /  1021.9 hPa ESE 3.5 mph /  5.6 km/h 2.6 mph /  4.2 km/h 64 % 0.00 in /  0 mm 0.00 W/m2 OVC
05:44 45.0 °F /  7.2 °C 33.9 °F /  1.1 °C 30.19 in /  1022.2 hPa SE 3.5 mph /  5.6 km/h 2.5 mph /  4 km/h 65 % 0.00 in /  0 mm 0.00 W/m2 OVC
05:49 44.8 °F /  7.1 °C 34.1 °F /  1.2 °C 30.19 in /  1022.2 hPa SE 3.5 mph /  5.6 km/h 2.0 mph /  3.2 km/h 66 % 0.00 in /  0 mm 0.00 W/m2 OVC
05:54 44.6 °F /  7 °C 34.7 °F /  1.5 °C 30.19 in /  1022.2 hPa SE 2.3 mph /  3.7 km/h 1.6 mph /  2.6 km/h 68 % 0.00 in /  0 mm 0.00 W/m2 OVC
05:59 44.4 °F /  6.9 °C 34.5 °F /  1.4 °C 30.20 in /  1022.6 hPa SE 2.3 mph /  3.7 km/h 1.3 mph /  2.1 km/h 68 % 0.00 in /  0 mm 0.00 W/m2 OVC
06:04 44.3 °F /  6.8 °C 34.4 °F /  1.3 °C 30.21 in /  1022.9 hPa Calm     68 % 0.00 in /  0 mm 0.00 W/m2 OVC
06:09 44.2 °F /  6.8 °C 34.3 °F /  1.3 °C 30.20 in /  1022.6 hPa Calm     68 % 0.00 in /  0 mm 0.00 W/m2 OVC
06:14 44.1 °F /  6.7 °C 34.6 °F /  1.4 °C 30.19 in /  1022.2 hPa SE 3.5 mph /  5.6 km/h 2.1 mph /  3.4 km/h 69 % 0.00 in /  0 mm 0.00 W/m2 OVC
06:19 44.0 °F /  6.7 °C 35.6 °F /  2 °C 30.18 in /  1021.9 hPa SE 2.3 mph /  3.7 km/h 1.7 mph /  2.7 km/h 72 % 0.00 in /  0 mm 0.00 W/m2 OVC
06:24 43.8 °F /  6.6 °C 35.7 °F /  2.1 °C 30.20 in /  1022.6 hPa WNW 4.0 mph /  6.4 km/h 1.8 mph /  2.9 km/h 73 % 0.00 in /  0 mm 0.00 W/m2 OVC
06:29 43.5 °F /  6.4 °C 35.1 °F /  1.7 °C 30.21 in /  1022.9 hPa West 3.5 mph /  5.6 km/h 2.8 mph /  4.5 km/h 72 % 0.00 in /  0 mm 0.00 W/m2 OVC
06:34 43.4 °F /  6.3 °C 35.0 °F /  1.7 °C 30.21 in /  1022.9 hPa West 1.2 mph /  1.9 km/h 0.6 mph /  1 km/h 72 % 0.00 in /  0 mm 0.00 W/m2 OVC
06:39 43.4 °F /  6.3 °C 35.0 °F /  1.7 °C 30.23 in /  1023.6 hPa WSW 3.5 mph /  5.6 km/h 2.0 mph /  3.2 km/h 72 % 0.00 in /  0 mm 0.00 W/m2 OVC
06:44 43.3 °F /  6.3 °C 34.5 °F /  1.4 °C 30.21 in /  1022.9 hPa Calm     71 % 0.00 in /  0 mm 0.00 W/m2 OVC
06:49 43.3 °F /  6.3 °C 34.5 °F /  1.4 °C 30.21 in /  1022.9 hPa Calm     71 % 0.00 in /  0 mm 0.00 W/m2 OVC
06:54 43.3 °F /  6.3 °C 34.2 °F /  1.2 °C 30.23 in /  1023.6 hPa Calm     70 % 0.00 in /  0 mm 0.00 W/m2 OVC
06:59 43.4 °F /  6.3 °C 33.9 °F /  1.1 °C 30.23 in /  1023.6 hPa Calm     69 % 0.00 in /  0 mm 0.00 W/m2 OVC
07:04 43.4 °F /  6.3 °C 33.5 °F /  0.8 °C 30.23 in /  1023.6 hPa Calm     68 % 0.00 in /  0 mm 0.00 W/m2 OVC
07:09 43.5 °F /  6.4 °C 34.0 °F /  1.1 °C 30.23 in /  1023.6 hPa Calm     69 % 0.00 in /  0 mm 0.00 W/m2 OVC
07:14 43.6 °F /  6.4 °C 33.4 °F /  0.8 °C 30.23 in /  1023.6 hPa Calm     67 % 0.00 in /  0 mm 7.00 W/m2 OVC
07:19 43.6 °F /  6.4 °C 33.4 °F /  0.8 °C 30.23 in /  1023.6 hPa Calm     67 % 0.00 in /  0 mm 11.00 W/m2 OVC
07:24 43.6 °F /  6.4 °C 32.6 °F /  0.3 °C 30.23 in /  1023.6 hPa Calm     65 % 0.00 in /  0 mm 12.00 W/m2 OVC
07:29 43.7 °F /  6.5 °C 32.7 °F /  0.4 °C 30.24 in /  1023.9 hPa Calm     65 % 0.00 in /  0 mm 14.00 W/m2 OVC
07:34 43.7 °F /  6.5 °C 32.3 °F /  0.2 °C 30.23 in /  1023.6 hPa Calm     64 % 0.00 in /  0 mm 21.00 W/m2 OVC
07:39 43.9 °F /  6.6 °C 32.1 °F /  0.1 °C 30.23 in /  1023.6 hPa Calm     63 % 0.00 in /  0 mm 33.00 W/m2 OVC
07:44 44.1 °F /  6.7 °C 32.3 °F /  0.2 °C 30.23 in /  1023.6 hPa Calm     63 % 0.00 in /  0 mm 44.00 W/m2 OVC
07:49 44.1 °F /  6.7 °C 34.6 °F /  1.4 °C 30.23 in /  1023.6 hPa Calm     69 % 0.00 in /  0 mm 51.00 W/m2 OVC
07:54 44.0 °F /  6.7 °C 34.1 °F /  1.2 °C 30.23 in /  1023.6 hPa Calm     68 % 0.00 in /  0 mm 53.00 W/m2 OVC
07:59 43.9 °F /  6.6 °C 34.7 °F /  1.5 °C 30.23 in /  1023.6 hPa Calm     70 % 0.00 in /  0 mm 60.00 W/m2 OVC
08:04 43.8 °F /  6.6 °C 34.6 °F /  1.4 °C 30.23 in /  1023.6 hPa Calm     70 % 0.00 in /  0 mm 65.00 W/m2 CLR
08:09 43.6 °F /  6.4 °C 34.8 °F /  1.6 °C 30.24 in /  1023.9 hPa Calm     71 % 0.00 in /  0 mm 67.00 W/m2 CLR
08:14 43.6 °F /  6.4 °C 34.5 °F /  1.4 °C 30.24 in /  1023.9 hPa Calm     70 % 0.00 in /  0 mm 67.00 W/m2 CLR
08:19 43.6 °F /  6.4 °C 35.9 °F /  2.2 °C 30.24 in /  1023.9 hPa Calm     74 % 0.00 in /  0 mm 67.00 W/m2 CLR
08:24 43.6 °F /  6.4 °C 35.2 °F /  1.8 °C 30.25 in /  1024.3 hPa Calm     72 % 0.00 in /  0 mm 74.00 W/m2 CLR
08:29 43.6 °F /  6.4 °C 36.2 °F /  2.3 °C 30.24 in /  1023.9 hPa Calm     75 % 0.00 in /  0 mm 79.00 W/m2 CLR
08:34 43.8 °F /  6.6 °C 37.4 °F /  3 °C 30.25 in /  1024.3 hPa Calm     78 % 0.00 in /  0 mm 84.00 W/m2 CLR
08:39 43.8 °F /  6.6 °C 37.1 °F /  2.8 °C 30.25 in /  1024.3 hPa Calm     77 % 0.00 in /  0 mm 86.00 W/m2 CLR
08:44 43.9 °F /  6.6 °C 37.2 °F /  2.9 °C 30.25 in /  1024.3 hPa Calm     77 % 0.00 in /  0 mm 86.00 W/m2 CLR
08:49 44.0 °F /  6.7 °C 37.6 °F /  3.1 °C 30.25 in /  1024.3 hPa Calm     78 % 0.00 in /  0 mm 95.00 W/m2 CLR
08:54 44.0 °F /  6.7 °C 35.6 °F /  2 °C 30.25 in /  1024.3 hPa Calm     72 % 0.00 in /  0 mm 146.00 W/m2 CLR
08:59 44.5 °F /  6.9 °C 35.3 °F /  1.8 °C 30.24 in /  1023.9 hPa Calm   0.5 mph /  0.8 km/h 70 % 0.00 in /  0 mm 181.00 W/m2 CLR
09:04 45.0 °F /  7.2 °C 34.3 °F /  1.3 °C 30.24 in /  1023.9 hPa SE 2.3 mph /  3.7 km/h 1.1 mph /  1.8 km/h 66 % 0.00 in /  0 mm 163.00 W/m2 CLR
09:09 45.5 °F /  7.5 °C 34.8 °F /  1.6 °C 30.24 in /  1023.9 hPa SE 2.3 mph /  3.7 km/h 1.6 mph /  2.6 km/h 66 % 0.00 in /  0 mm 144.00 W/m2 CLR
09:14 46.0 °F /  7.8 °C 33.7 °F /  0.9 °C 30.24 in /  1023.9 hPa ESE 3.5 mph /  5.6 km/h 2.3 mph /  3.7 km/h 62 % 0.00 in /  0 mm 93.00 W/m2 CLR
09:19 46.4 °F /  8 °C 33.7 °F /  0.9 °C 30.24 in /  1023.9 hPa SE 2.3 mph /  3.7 km/h 1.7 mph /  2.7 km/h 61 % 0.00 in /  0 mm 79.00 W/m2 CLR
09:24 46.7 °F /  8.2 °C 34.0 °F /  1.1 °C 30.24 in /  1023.9 hPa SSE 2.3 mph /  3.7 km/h 1.7 mph /  2.7 km/h 61 % 0.00 in /  0 mm 91.00 W/m2 CLR
09:29 47.0 °F /  8.3 °C 33.8 °F /  1 °C 30.25 in /  1024.3 hPa SE 3.5 mph /  5.6 km/h 1.6 mph /  2.6 km/h 60 % 0.00 in /  0 mm 83.00 W/m2 CLR
09:34 47.2 °F /  8.4 °C 34.4 °F /  1.3 °C 30.25 in /  1024.3 hPa South 2.3 mph /  3.7 km/h 0.1 mph /  0.2 km/h 61 % 0.00 in /  0 mm 69.00 W/m2 CLR
09:39 47.4 °F /  8.6 °C 34.6 °F /  1.4 °C 30.24 in /  1023.9 hPa Calm     61 % 0.00 in /  0 mm 120.00 W/m2 CLR
09:44 47.7 °F /  8.7 °C 34.5 °F /  1.4 °C 30.23 in /  1023.6 hPa SE 3.5 mph /  5.6 km/h 1.5 mph /  2.4 km/h 60 % 0.00 in /  0 mm 107.00 W/m2 CLR
09:49 48.0 °F /  8.9 °C 35.2 °F /  1.8 °C 30.23 in /  1023.6 hPa SE 3.5 mph /  5.6 km/h 2.0 mph /  3.2 km/h 61 % 0.00 in /  0 mm 139.00 W/m2 CLR
09:54 48.3 °F /  9.1 °C 34.6 °F /  1.4 °C 30.23 in /  1023.6 hPa SE 3.5 mph /  5.6 km/h 1.6 mph /  2.6 km/h 59 % 0.00 in /  0 mm 144.00 W/m2 CLR
09:59 48.6 °F /  9.2 °C 34.9 °F /  1.6 °C 30.23 in /  1023.6 hPa SE 3.5 mph /  5.6 km/h 2.4 mph /  3.9 km/h 59 % 0.00 in /  0 mm 98.00 W/m2 CLR
10:04 48.9 °F /  9.4 °C 36.0 °F /  2.2 °C 30.23 in /  1023.6 hPa ESE 4.0 mph /  6.4 km/h 3.8 mph /  6.1 km/h 61 % 0.00 in /  0 mm 79.00 W/m2 BKN
10:09 49.1 °F /  9.5 °C 35.4 °F /  1.9 °C 30.23 in /  1023.6 hPa ESE 6.9 mph /  11.1 km/h 3.5 mph /  5.6 km/h 59 % 0.00 in /  0 mm 74.00 W/m2 BKN
10:14 49.2 °F /  9.6 °C 35.5 °F /  1.9 °C 30.22 in /  1023.2 hPa SE 6.9 mph /  11.1 km/h 3.4 mph /  5.5 km/h 59 % 0.00 in /  0 mm 77.00 W/m2 OVC
10:19 49.3 °F /  9.6 °C 36.0 °F /  2.2 °C 30.22 in /  1023.2 hPa SE 3.5 mph /  5.6 km/h 3.0 mph /  4.8 km/h 60 % 0.00 in /  0 mm 77.00 W/m2 OVC
10:24 49.4 °F /  9.7 °C 36.1 °F /  2.3 °C 30.21 in /  1022.9 hPa ESE 3.5 mph /  5.6 km/h 2.1 mph /  3.4 km/h 60 % 0.00 in /  0 mm 100.00 W/m2 OVC
10:29 49.4 °F /  9.7 °C 35.7 °F /  2.1 °C 30.21 in /  1022.9 hPa SSE 3.5 mph /  5.6 km/h 2.9 mph /  4.7 km/h 59 % 0.00 in /  0 mm 70.00 W/m2 OVC
10:34 49.5 °F /  9.7 °C 36.2 °F /  2.3 °C 30.21 in /  1022.9 hPa SE 8.1 mph /  13 km/h 3.7 mph /  6 km/h 60 % 0.00 in /  0 mm 51.00 W/m2 OVC
10:39 49.5 °F /  9.7 °C 36.6 °F /  2.6 °C 30.21 in /  1022.9 hPa ESE 4.6 mph /  7.4 km/h 3.1 mph /  5 km/h 61 % 0.00 in /  0 mm 49.00 W/m2 OVC
10:44 49.5 °F /  9.7 °C 36.6 °F /  2.6 °C 30.20 in /  1022.6 hPa SE 6.9 mph /  11.1 km/h 4.6 mph /  7.4 km/h 61 % 0.00 in /  0 mm 63.00 W/m2 OVC
10:49 49.5 °F /  9.7 °C 36.2 °F /  2.3 °C 30.21 in /  1022.9 hPa West 5.8 mph /  9.3 km/h 3.5 mph /  5.6 km/h 60 % 0.00 in /  0 mm 46.00 W/m2 OVC
10:54 49.4 °F /  9.7 °C 36.1 °F /  2.3 °C 30.21 in /  1022.9 hPa SSE 4.6 mph /  7.4 km/h 4.0 mph /  6.4 km/h 60 % 0.00 in /  0 mm 47.00 W/m2 OVC
10:59 49.5 °F /  9.7 °C 36.2 °F /  2.3 °C 30.21 in /  1022.9 hPa SSE 5.8 mph /  9.3 km/h 3.7 mph /  6 km/h 60 % 0.00 in /  0 mm 47.00 W/m2 OVC
11:04 49.5 °F /  9.7 °C 36.6 °F /  2.6 °C 30.21 in /  1022.9 hPa SE 4.0 mph /  6.4 km/h 2.9 mph /  4.7 km/h 61 % 0.00 in /  0 mm 69.00 W/m2 OVC
11:09 49.5 °F /  9.7 °C 36.6 °F /  2.6 °C 30.20 in /  1022.6 hPa SE 5.0 mph /  8 km/h 3.3 mph /  5.3 km/h 61 % 0.00 in /  0 mm 70.00 W/m2 OVC
11:14 49.5 °F /  9.7 °C 36.2 °F /  2.3 °C 30.20 in /  1022.6 hPa SE 5.0 mph /  8 km/h 3.7 mph /  6 km/h 60 % 0.00 in /  0 mm 76.00 W/m2 OVC
11:19 49.5 °F /  9.7 °C 36.2 °F /  2.3 °C 30.19 in /  1022.2 hPa SSE 5.0 mph /  8 km/h 3.9 mph /  6.3 km/h 60 % 0.00 in /  0 mm 65.00 W/m2 OVC
11:24 49.6 °F /  9.8 °C 36.7 °F /  2.6 °C 30.19 in /  1022.2 hPa ESE 3.5 mph /  5.6 km/h 3.0 mph /  4.8 km/h 61 % 0.00 in /  0 mm 98.00 W/m2 OVC
11:29 49.6 °F /  9.8 °C 36.7 °F /  2.6 °C 30.18 in /  1021.9 hPa ESE 4.6 mph /  7.4 km/h 4.2 mph /  6.8 km/h 61 % 0.00 in /  0 mm 97.00 W/m2 OVC
11:34 49.6 °F /  9.8 °C 36.3 °F /  2.4 °C 30.18 in /  1021.9 hPa SE 6.9 mph /  11.1 km/h 3.3 mph /  5.3 km/h 60 % 0.00 in /  0 mm 141.00 W/m2 OVC
11:39 49.8 °F /  9.9 °C 36.0 °F /  2.2 °C 30.17 in /  1021.6 hPa SSE 9.0 mph /  14.5 km/h 3.9 mph /  6.3 km/h 59 % 0.00 in /  0 mm 144.00 W/m2 OVC
11:44 49.9 °F /  9.9 °C 36.1 °F /  2.3 °C 30.16 in /  1021.2 hPa SE 8.1 mph /  13 km/h 4.9 mph /  7.9 km/h 59 % 0.00 in /  0 mm 134.00 W/m2 OVC
11:49 50.1 °F /  10.1 °C 36.3 °F /  2.4 °C 30.16 in /  1021.2 hPa ESE 6.9 mph /  11.1 km/h 4.2 mph /  6.8 km/h 59 % 0.00 in /  0 mm 107.00 W/m2 OVC
11:54 50.2 °F /  10.1 °C 36.8 °F /  2.7 °C 30.15 in /  1020.9 hPa ESE 5.8 mph /  9.3 km/h 3.2 mph /  5.1 km/h 60 % 0.00 in /  0 mm 91.00 W/m2 OVC
11:59 50.2 °F /  10.1 °C 36.4 °F /  2.4 °C 30.15 in /  1020.9 hPa SE 3.5 mph /  5.6 km/h 3.3 mph /  5.3 km/h 59 % 0.00 in /  0 mm 88.00 W/m2 OVC
12:04 50.2 °F /  10.1 °C 36.8 °F /  2.7 °C 30.14 in /  1020.5 hPa SE 5.8 mph /  9.3 km/h 2.3 mph /  3.7 km/h 60 % 0.00 in /  0 mm 60.00 W/m2 OVC
12:09 50.1 °F /  10.1 °C 35.9 °F /  2.2 °C 30.14 in /  1020.5 hPa SE 4.6 mph /  7.4 km/h 3.2 mph /  5.1 km/h 58 % 0.00 in /  0 mm 58.00 W/m2 OVC
12:14 50.1 °F /  10.1 °C 36.3 °F /  2.4 °C 30.13 in /  1020.2 hPa East 4.6 mph /  7.4 km/h 3.1 mph /  5 km/h 59 % 0.00 in /  0 mm 58.00 W/m2 OVC
12:19 50.0 °F /  10 °C 36.2 °F /  2.3 °C 30.13 in /  1020.2 hPa ESE 5.0 mph /  8 km/h 2.7 mph /  4.3 km/h 59 % 0.00 in /  0 mm 74.00 W/m2 OVC
12:24 49.9 °F /  9.9 °C 36.1 °F /  2.3 °C 30.13 in /  1020.2 hPa SE 7.0 mph /  11.3 km/h 4.3 mph /  6.9 km/h 59 % 0.00 in /  0 mm 63.00 W/m2 OVC
12:29 49.9 °F /  9.9 °C 36.1 °F /  2.3 °C 30.12 in /  1019.9 hPa East 5.8 mph /  9.3 km/h 3.3 mph /  5.3 km/h 59 % 0.00 in /  0 mm 74.00 W/m2 OVC
12:34 49.9 °F /  9.9 °C 36.1 °F /  2.3 °C 30.12 in /  1019.9 hPa SE 6.9 mph /  11.1 km/h 4.6 mph /  7.4 km/h 59 % 0.00 in /  0 mm 81.00 W/m2 OVC
12:39 49.9 °F /  9.9 °C 36.1 °F /  2.3 °C 30.13 in /  1020.2 hPa SE 6.0 mph /  9.7 km/h 5.7 mph /  9.2 km/h 59 % 0.00 in /  0 mm 70.00 W/m2 OVC
12:44 49.9 °F /  9.9 °C 36.1 °F /  2.3 °C 30.13 in /  1020.2 hPa ESE 7.0 mph /  11.3 km/h 3.9 mph /  6.3 km/h 59 % 0.00 in /  0 mm 67.00 W/m2 OVC
12:49 49.8 °F /  9.9 °C 36.0 °F /  2.2 °C 30.12 in /  1019.9 hPa ESE 8.0 mph /  12.9 km/h 6.0 mph /  9.7 km/h 59 % 0.00 in /  0 mm 51.00 W/m2 OVC
12:54 49.8 °F /  9.9 °C 35.6 °F /  2 °C 30.12 in /  1019.9 hPa SE 3.5 mph /  5.6 km/h 2.3 mph /  3.7 km/h 58 % 0.00 in /  0 mm 44.00 W/m2 OVC
12:59 49.7 °F /  9.8 °C 35.9 °F /  2.2 °C 30.11 in /  1019.5 hPa SE 3.5 mph /  5.6 km/h 3.7 mph /  6 km/h 59 % 0.00 in /  0 mm 39.00 W/m2 OVC
13:04 49.7 °F /  9.8 °C 35.5 °F /  1.9 °C 30.11 in /  1019.5 hPa SSE 9.2 mph /  14.8 km/h 5.2 mph /  8.4 km/h 58 % 0.00 in /  0 mm 53.00 W/m2 OVC
13:09 49.6 °F /  9.8 °C 35.8 °F /  2.1 °C 30.11 in /  1019.5 hPa SE 6.9 mph /  11.1 km/h 4.0 mph /  6.4 km/h 59 % 0.00 in /  0 mm 54.00 W/m2 OVC
13:14 49.5 °F /  9.7 °C 35.8 °F /  2.1 °C 30.12 in /  1019.9 hPa SE 4.6 mph /  7.4 km/h 3.1 mph /  5 km/h 59 % 0.00 in /  0 mm 49.00 W/m2 OVC
13:19 49.5 °F /  9.7 °C 36.2 °F /  2.3 °C 30.11 in /  1019.5 hPa SE 3.5 mph /  5.6 km/h 1.4 mph /  2.3 km/h 60 % 0.00 in /  0 mm 39.00 W/m2 OVC
13:24 49.5 °F /  9.7 °C 36.6 °F /  2.6 °C 30.11 in /  1019.5 hPa SE 2.3 mph /  3.7 km/h 1.5 mph /  2.4 km/h 61 % 0.00 in /  0 mm 37.00 W/m2 OVC
13:29 49.4 °F /  9.7 °C 36.5 °F /  2.5 °C 30.11 in /  1019.5 hPa SE 3.5 mph /  5.6 km/h 3.0 mph /  4.8 km/h 61 % 0.00 in /  0 mm 39.00 W/m2 OVC
13:34 49.3 °F /  9.6 °C 36.8 °F /  2.7 °C 30.10 in /  1019.2 hPa SE 4.6 mph /  7.4 km/h 1.4 mph /  2.3 km/h 62 % 0.00 in /  0 mm 86.00 W/m2 OVC
13:39 49.2 °F /  9.6 °C 37.1 °F /  2.8 °C 30.10 in /  1019.2 hPa SE 3.5 mph /  5.6 km/h 3.2 mph /  5.1 km/h 63 % 0.00 in /  0 mm 134.00 W/m2 OVC
13:44 49.3 °F /  9.6 °C 37.6 °F /  3.1 °C 30.09 in /  1018.8 hPa ESE 2.3 mph /  3.7 km/h 1.1 mph /  1.8 km/h 64 % 0.00 in /  0 mm 104.00 W/m2 OVC
13:49 49.3 °F /  9.6 °C 37.6 °F /  3.1 °C 30.09 in /  1018.8 hPa SE 3.5 mph /  5.6 km/h 1.3 mph /  2.1 km/h 64 % 0.00 in /  0 mm 81.00 W/m2 OVC
13:54 49.3 °F /  9.6 °C 37.2 °F /  2.9 °C 30.10 in /  1019.2 hPa SE 4.6 mph /  7.4 km/h 2.5 mph /  4 km/h 63 % 0.00 in /  0 mm 35.00 W/m2 OVC
13:59 49.2 °F /  9.6 °C 37.1 °F /  2.8 °C 30.10 in /  1019.2 hPa SSE 4.6 mph /  7.4 km/h 3.1 mph /  5 km/h 63 % 0.00 in /  0 mm 30.00 W/m2 OVC
14:04 49.2 °F /  9.6 °C 37.1 °F /  2.8 °C 30.09 in /  1018.8 hPa ENE 3.5 mph /  5.6 km/h 2.3 mph /  3.7 km/h 63 % 0.00 in /  0 mm 39.00 W/m2 -RA
14:09 49.2 °F /  9.6 °C 36.7 °F /  2.6 °C 30.09 in /  1018.8 hPa SE 3.5 mph /  5.6 km/h 2.1 mph /  3.4 km/h 62 % 0.00 in /  0 mm 35.00 W/m2 -RA
14:14 49.1 °F /  9.5 °C 37.0 °F /  2.8 °C 30.10 in /  1019.2 hPa SE 2.3 mph /  3.7 km/h 0.4 mph /  0.6 km/h 63 % 0.00 in /  0 mm 23.00 W/m2 -RA
14:19 49.1 °F /  9.5 °C 36.6 °F /  2.6 °C 30.09 in /  1018.8 hPa SE 2.3 mph /  3.7 km/h   62 % 0.00 in /  0 mm 21.00 W/m2 -RA
14:24 49.1 °F /  9.5 °C 36.6 °F /  2.6 °C 30.10 in /  1019.2 hPa SE 3.5 mph /  5.6 km/h 2.3 mph /  3.7 km/h 62 % 0.00 in /  0 mm 19.00 W/m2 -RA
14:29 49.0 °F /  9.4 °C 37.3 °F /  2.9 °C 30.11 in /  1019.5 hPa Calm   0.2 mph /  0.3 km/h 64 % 0.00 in /  0 mm 12.00 W/m2 -RA
14:34 49.0 °F /  9.4 °C 38.1 °F /  3.4 °C 30.11 in /  1019.5 hPa Calm     66 % 0.00 in /  0 mm 14.00 W/m2 -RA
14:39 49.0 °F /  9.4 °C 39.6 °F /  4.2 °C 30.11 in /  1019.5 hPa Calm     70 % 0.01 in /  0.25 mm 23.00 W/m2 -RA
14:44 48.8 °F /  9.3 °C 39.8 °F /  4.3 °C 30.10 in /  1019.2 hPa Calm     71 % 0.01 in /  0.25 mm 19.00 W/m2 -RA
14:49 48.5 °F /  9.2 °C 40.6 °F /  4.8 °C 30.10 in /  1019.2 hPa Calm     74 % 0.01 in /  0.25 mm 18.00 W/m2 -RA
14:54 48.1 °F /  8.9 °C 40.5 °F /  4.7 °C 30.09 in /  1018.8 hPa Calm     75 % 0.02 in /  0.51 mm 11.00 W/m2 -RA
14:59 47.8 °F /  8.8 °C 40.6 °F /  4.8 °C 30.09 in /  1018.8 hPa Calm     76 % 0.02 in /  0.51 mm 11.00 W/m2 -RA
15:04 47.4 °F /  8.6 °C 41.5 °F /  5.3 °C 30.08 in /  1018.5 hPa Calm     80 % 0.03 in /  0.76 mm 12.00 W/m2 -RA
15:09 46.8 °F /  8.2 °C 41.6 °F /  5.3 °C 30.08 in /  1018.5 hPa Calm     82 % 0.04 in /  1.02 mm 21.00 W/m2 -RA
15:14 46.4 °F /  8 °C 41.5 °F /  5.3 °C 30.08 in /  1018.5 hPa Calm     83 % 0.04 in /  1.02 mm 18.00 W/m2 -RA
15:19 45.9 °F /  7.7 °C 41.3 °F /  5.2 °C 30.08 in /  1018.5 hPa Calm     84 % 0.05 in /  1.27 mm 16.00 W/m2 -RA
15:24 45.6 °F /  7.6 °C 41.0 °F /  5 °C 30.08 in /  1018.5 hPa Calm     84 % 0.05 in /  1.27 mm 12.00 W/m2 -RA
15:29 45.2 °F /  7.3 °C 41.0 °F /  5 °C 30.07 in /  1018.2 hPa Calm     85 % 0.05 in /  1.27 mm 12.00 W/m2 -RA
15:34 44.9 °F /  7.2 °C 41.0 °F /  5 °C 30.07 in /  1018.2 hPa NE 3.0 mph /  4.8 km/h 1.3 mph /  2.1 km/h 86 % 0.06 in /  1.52 mm 14.00 W/m2 -RA
15:39 44.7 °F /  7.1 °C 41.1 °F /  5.1 °C 30.07 in /  1018.2 hPa ESE 3.5 mph /  5.6 km/h 1.2 mph /  1.9 km/h 87 % 0.05 in /  1.27 mm 9.00 W/m2 -RA
15:44 44.5 °F /  6.9 °C 41.2 °F /  5.1 °C 30.07 in /  1018.2 hPa ESE 2.3 mph /  3.7 km/h 0.9 mph /  1.4 km/h 88 % 0.05 in /  1.27 mm 9.00 W/m2 -RA
15:49 44.4 °F /  6.9 °C 41.4 °F /  5.2 °C 30.07 in /  1018.2 hPa ESE 2.3 mph /  3.7 km/h 1.4 mph /  2.3 km/h 89 % 0.05 in /  1.27 mm 9.00 W/m2 -RA
15:54 44.2 °F /  6.8 °C 41.2 °F /  5.1 °C 30.08 in /  1018.5 hPa SE 2.3 mph /  3.7 km/h 1.1 mph /  1.8 km/h 89 % 0.05 in /  1.27 mm 5.00 W/m2 -RA
15:59 44.1 °F /  6.7 °C 41.1 °F /  5.1 °C 30.08 in /  1018.5 hPa ESE 3.5 mph /  5.6 km/h 3.1 mph /  5 km/h 89 % 0.05 in /  1.27 mm 5.00 W/m2 -RA
16:04 44.1 °F /  6.7 °C 41.1 °F /  5.1 °C 30.08 in /  1018.5 hPa SE 4.0 mph /  6.4 km/h 2.0 mph /  3.2 km/h 89 % 0.04 in /  1.02 mm 0.00 W/m2 -RA
16:09 44.1 °F /  6.7 °C 41.1 °F /  5.1 °C 30.08 in /  1018.5 hPa SE 3.5 mph /  5.6 km/h 2.4 mph /  3.9 km/h 89 % 0.03 in /  0.76 mm 5.00 W/m2 -RA
16:14 44.1 °F /  6.7 °C 41.1 °F /  5.1 °C 30.07 in /  1018.2 hPa SE 3.5 mph /  5.6 km/h 2.0 mph /  3.2 km/h 89 % 0.04 in /  1.02 mm 0.00 W/m2 -RA
16:19 44.1 °F /  6.7 °C 41.4 °F /  5.2 °C 30.08 in /  1018.5 hPa SE 3.5 mph /  5.6 km/h 1.6 mph /  2.6 km/h 90 % 0.03 in /  0.76 mm 0.00 W/m2 -RA
16:24 44.1 °F /  6.7 °C 41.4 °F /  5.2 °C 30.08 in /  1018.5 hPa ESE 2.3 mph /  3.7 km/h 0.8 mph /  1.3 km/h 90 % 0.03 in /  0.76 mm 0.00 W/m2 -RA
16:29 44.0 °F /  6.7 °C 41.3 °F /  5.2 °C 30.07 in /  1018.2 hPa ESE 3.5 mph /  5.6 km/h 1.5 mph /  2.4 km/h 90 % 0.04 in /  1.02 mm 0.00 W/m2 -RA
16:34 44.0 °F /  6.7 °C 41.5 °F /  5.3 °C 30.07 in /  1018.2 hPa East 2.3 mph /  3.7 km/h 0.5 mph /  0.8 km/h 91 % 0.03 in /  0.76 mm 0.00 W/m2 -RA
16:39 43.8 °F /  6.6 °C 41.3 °F /  5.2 °C 30.06 in /  1017.8 hPa NE 2.0 mph /  3.2 km/h   91 % 0.04 in /  1.02 mm 5.00 W/m2 -RA
16:44 43.8 °F /  6.6 °C 41.6 °F /  5.3 °C 30.07 in /  1018.2 hPa North 2.0 mph /  3.2 km/h 0.9 mph /  1.4 km/h 92 % 0.04 in /  1.02 mm 0.00 W/m2 -RA
16:49 43.7 °F /  6.5 °C 41.5 °F /  5.3 °C 30.06 in /  1017.8 hPa NNE 2.3 mph /  3.7 km/h 0.8 mph /  1.3 km/h 92 % 0.05 in /  1.27 mm 0.00 W/m2 -RA
16:54 43.6 °F /  6.4 °C 41.4 °F /  5.2 °C 30.05 in /  1017.5 hPa ENE 2.3 mph /  3.7 km/h 1.7 mph /  2.7 km/h 92 % 0.04 in /  1.02 mm 0.00 W/m2 -RA
16:59 43.5 °F /  6.4 °C 41.6 °F /  5.3 °C 30.05 in /  1017.5 hPa East 2.3 mph /  3.7 km/h 1.8 mph /  2.9 km/h 93 % 0.04 in /  1.02 mm 0.00 W/m2 -RA
17:04 43.3 °F /  6.3 °C 41.4 °F /  5.2 °C 30.05 in /  1017.5 hPa ESE 3.5 mph /  5.6 km/h 2.1 mph /  3.4 km/h 93 % 0.04 in /  1.02 mm 0.00 W/m2 -RA
17:09 43.2 °F /  6.2 °C 41.3 °F /  5.2 °C 30.05 in /  1017.5 hPa East 2.3 mph /  3.7 km/h 1.7 mph /  2.7 km/h 93 % 0.04 in /  1.02 mm 0.00 W/m2 -RA
17:14 43.1 °F /  6.2 °C 41.2 °F /  5.1 °C 30.05 in /  1017.5 hPa ESE 3.5 mph /  5.6 km/h 2.0 mph /  3.2 km/h 93 % 0.03 in /  0.76 mm 0.00 W/m2 -RA
17:19 43.1 °F /  6.2 °C 41.2 °F /  5.1 °C 30.06 in /  1017.8 hPa ESE 3.5 mph /  5.6 km/h 1.7 mph /  2.7 km/h 93 % 0.03 in /  0.76 mm 0.00 W/m2 -RA
17:24 43.0 °F /  6.1 °C 41.1 °F /  5.1 °C 30.06 in /  1017.8 hPa ESE 3.5 mph /  5.6 km/h 1.9 mph /  3.1 km/h 93 % 0.03 in /  0.76 mm 0.00 W/m2 -RA
17:29 42.9 °F /  6.1 °C 41.0 °F /  5 °C 30.05 in /  1017.5 hPa Calm     93 % 0.02 in /  0.51 mm 0.00 W/m2 -RA
17:34 43.0 °F /  6.1 °C 41.1 °F /  5.1 °C 30.05 in /  1017.5 hPa ENE 2.3 mph /  3.7 km/h 1.1 mph /  1.8 km/h 93 % 0.02 in /  0.51 mm 0.00 W/m2 -RA
17:39 43.0 °F /  6.1 °C 41.4 °F /  5.2 °C 30.06 in /  1017.8 hPa Calm     94 % 0.01 in /  0.25 mm 0.00 W/m2 -RA
17:44 43.0 °F /  6.1 °C 41.4 °F /  5.2 °C 30.07 in /  1018.2 hPa Calm     94 % 0.01 in /  0.25 mm 0.00 W/m2 -RA
17:49 43.0 °F /  6.1 °C 41.4 °F /  5.2 °C 30.06 in /  1017.8 hPa ESE 3.5 mph /  5.6 km/h 1.8 mph /  2.9 km/h 94 % 0.00 in /  0 mm 0.00 W/m2 -RA
17:54 42.9 °F /  6.1 °C 41.3 °F /  5.2 °C 30.06 in /  1017.8 hPa SE 3.5 mph /  5.6 km/h 2.2 mph /  3.5 km/h 94 % 0.01 in /  0.25 mm 0.00 W/m2 -RA
17:59 42.9 °F /  6.1 °C 41.3 °F /  5.2 °C 30.06 in /  1017.8 hPa ESE 3.5 mph /  5.6 km/h 2.5 mph /  4 km/h 94 % 0.01 in /  0.25 mm 0.00 W/m2 -RA
18:04 43.0 °F /  6.1 °C 41.4 °F /  5.2 °C 30.06 in /  1017.8 hPa ESE 3.5 mph /  5.6 km/h 1.5 mph /  2.4 km/h 94 % 0.01 in /  0.25 mm 0.00 W/m2 -RA
18:09 43.0 °F /  6.1 °C 41.4 °F /  5.2 °C 30.05 in /  1017.5 hPa ESE 2.3 mph /  3.7 km/h 1.6 mph /  2.6 km/h 94 % 0.01 in /  0.25 mm 0.00 W/m2 -RA
18:14 43.0 °F /  6.1 °C 41.4 °F /  5.2 °C 30.05 in /  1017.5 hPa SE 3.5 mph /  5.6 km/h 1.8 mph /  2.9 km/h 94 % 0.02 in /  0.51 mm 0.00 W/m2 -RA
18:19 43.0 °F /  6.1 °C 41.4 °F /  5.2 °C 30.05 in /  1017.5 hPa ESE 3.5 mph /  5.6 km/h 1.9 mph /  3.1 km/h 94 % 0.03 in /  0.76 mm 0.00 W/m2 -RA
18:24 43.0 °F /  6.1 °C 41.4 °F /  5.2 °C 30.05 in /  1017.5 hPa ESE 3.5 mph /  5.6 km/h 1.1 mph /  1.8 km/h 94 % 0.05 in /  1.27 mm 0.00 W/m2 -RA
18:29 43.0 °F /  6.1 °C 41.4 °F /  5.2 °C 30.05 in /  1017.5 hPa ESE 2.3 mph /  3.7 km/h 0.6 mph /  1 km/h 94 % 0.07 in /  1.78 mm 0.00 W/m2 -RA
18:34 43.0 °F /  6.1 °C 41.4 °F /  5.2 °C 30.05 in /  1017.5 hPa ESE 2.3 mph /  3.7 km/h   94 % 0.08 in /  2.03 mm 0.00 W/m2 -RA
18:39 43.0 °F /  6.1 °C 41.7 °F /  5.4 °C 30.05 in /  1017.5 hPa ESE 1.2 mph /  1.9 km/h 0.1 mph /  0.2 km/h 95 % 0.08 in /  2.03 mm 0.00 W/m2 -RA
18:44 43.0 °F /  6.1 °C 41.4 °F /  5.2 °C 30.05 in /  1017.5 hPa ESE 1.2 mph /  1.9 km/h   94 % 0.08 in /  2.03 mm 0.00 W/m2 -RA
18:49 43.0 °F /  6.1 °C 41.7 °F /  5.4 °C 30.05 in /  1017.5 hPa SE 2.3 mph /  3.7 km/h 0.5 mph /  0.8 km/h 95 % 0.08 in /  2.03 mm 0.00 W/m2 -RA
18:54 43.0 °F /  6.1 °C 41.7 °F /  5.4 °C 30.06 in /  1017.8 hPa Calm     95 % 0.08 in /  2.03 mm 0.00 W/m2 -RA
18:59 43.0 °F /  6.1 °C 41.7 °F /  5.4 °C 30.05 in /  1017.5 hPa Calm     95 % 0.08 in /  2.03 mm 0.00 W/m2 -RA
19:04 43.0 °F /  6.1 °C 41.7 °F /  5.4 °C 30.05 in /  1017.5 hPa Calm     95 % 0.08 in /  2.03 mm 0.00 W/m2 -RA
19:09 43.0 °F /  6.1 °C 41.7 °F /  5.4 °C 30.05 in /  1017.5 hPa Calm     95 % 0.08 in /  2.03 mm 0.00 W/m2 -RA
19:14 43.0 °F /  6.1 °C 41.7 °F /  5.4 °C 30.05 in /  1017.5 hPa Calm     95 % 0.07 in /  1.78 mm 0.00 W/m2 -RA
19:19 43.0 °F /  6.1 °C 41.7 °F /  5.4 °C 30.05 in /  1017.5 hPa Calm     95 % 0.06 in /  1.52 mm 0.00 W/m2 -RA
19:24 43.0 °F /  6.1 °C 41.7 °F /  5.4 °C 30.05 in /  1017.5 hPa Calm     95 % 0.04 in /  1.02 mm 0.00 W/m2 -RA
19:29 43.0 °F /  6.1 °C 41.7 °F /  5.4 °C 30.05 in /  1017.5 hPa Calm     95 % 0.03 in /  0.76 mm 0.00 W/m2 -RA
19:34 43.0 °F /  6.1 °C 41.7 °F /  5.4 °C 30.05 in /  1017.5 hPa Calm     95 % 0.02 in /  0.51 mm 0.00 W/m2 -RA
19:39 43.0 °F /  6.1 °C 41.7 °F /  5.4 °C 30.05 in /  1017.5 hPa Calm     95 % 0.02 in /  0.51 mm 0.00 W/m2 -RA
19:44 43.1 °F /  6.2 °C 41.8 °F /  5.4 °C 30.05 in /  1017.5 hPa Calm     95 % 0.02 in /  0.51 mm 0.00 W/m2 -RA
19:49 43.1 °F /  6.2 °C 41.8 °F /  5.4 °C 30.06 in /  1017.8 hPa Calm     95 % 0.02 in /  0.51 mm 0.00 W/m2 -RA
19:54 43.1 °F /  6.2 °C 42.0 °F /  5.6 °C 30.06 in /  1017.8 hPa Calm     96 % 0.01 in /  0.25 mm 0.00 W/m2 -RA
19:59 43.1 °F /  6.2 °C 42.0 °F /  5.6 °C 30.05 in /  1017.5 hPa Calm     96 % 0.01 in /  0.25 mm 0.00 W/m2 -RA
20:04 43.2 °F /  6.2 °C 42.1 °F /  5.6 °C 30.05 in /  1017.5 hPa SE 2.3 mph /  3.7 km/h 0.7 mph /  1.1 km/h 96 % 0.01 in /  0.25 mm 0.00 W/m2 -RA
20:09 43.2 °F /  6.2 °C 42.1 °F /  5.6 °C 30.06 in /  1017.8 hPa SE 1.2 mph /  1.9 km/h 0.1 mph /  0.2 km/h 96 % 0.01 in /  0.25 mm 0.00 W/m2 -RA
20:14 43.3 °F /  6.3 °C 42.2 °F /  5.7 °C 30.06 in /  1017.8 hPa Calm     96 % 0.01 in /  0.25 mm 0.00 W/m2 -RA
20:19 43.3 °F /  6.3 °C 42.2 °F /  5.7 °C 30.06 in /  1017.8 hPa Calm     96 % 0.01 in /  0.25 mm 0.00 W/m2 -RA
20:24 43.4 °F /  6.3 °C 42.3 °F /  5.7 °C 30.06 in /  1017.8 hPa Calm     96 % 0.01 in /  0.25 mm 0.00 W/m2 -RA
20:29 43.4 °F /  6.3 °C 42.3 °F /  5.7 °C 30.06 in /  1017.8 hPa Calm     96 % 0.00 in /  0 mm 0.00 W/m2 -RA
20:34 43.4 °F /  6.3 °C 42.3 °F /  5.7 °C 30.05 in /  1017.5 hPa SE 2.3 mph /  3.7 km/h 1.1 mph /  1.8 km/h 96 % 0.00 in /  0 mm 0.00 W/m2 -RA
20:39 43.4 °F /  6.3 °C 42.3 °F /  5.7 °C 30.06 in /  1017.8 hPa Calm     96 % 0.00 in /  0 mm 0.00 W/m2 -RA
20:44 43.5 °F /  6.4 °C 42.4 °F /  5.8 °C 30.05 in /  1017.5 hPa Calm     96 % 0.00 in /  0 mm 0.00 W/m2 -RA
20:49 43.5 °F /  6.4 °C 42.4 °F /  5.8 °C 30.05 in /  1017.5 hPa Calm     96 % 0.00 in /  0 mm 0.00 W/m2 -RA
20:54 43.6 °F /  6.4 °C 42.5 °F /  5.8 °C 30.05 in /  1017.5 hPa Calm     96 % 0.00 in /  0 mm 0.00 W/m2 -RA
20:59 43.6 °F /  6.4 °C 42.5 °F /  5.8 °C 30.06 in /  1017.8 hPa Calm     96 % 0.00 in /  0 mm 0.00 W/m2 -RA
21:04 43.7 °F /  6.5 °C 42.6 °F /  5.9 °C 30.05 in /  1017.5 hPa Calm     96 % 0.00 in /  0 mm 0.00 W/m2 OVC
21:09 43.7 °F /  6.5 °C 42.6 °F /  5.9 °C 30.06 in /  1017.8 hPa Calm     96 % 0.00 in /  0 mm 0.00 W/m2 OVC
21:14 43.8 °F /  6.6 °C 42.7 °F /  5.9 °C 30.05 in /  1017.5 hPa Calm     96 % 0.00 in /  0 mm 0.00 W/m2 OVC
21:19 43.8 °F /  6.6 °C 42.7 °F /  5.9 °C 30.05 in /  1017.5 hPa Calm     96 % 0.00 in /  0 mm 0.00 W/m2 OVC
21:24 43.9 °F /  6.6 °C 42.8 °F /  6 °C 30.05 in /  1017.5 hPa Calm     96 % 0.00 in /  0 mm 0.00 W/m2 OVC
21:29 44.0 °F /  6.7 °C 42.9 °F /  6.1 °C 30.05 in /  1017.5 hPa Calm     96 % 0.00 in /  0 mm 0.00 W/m2 OVC
21:34 44.1 °F /  6.7 °C 43.0 °F /  6.1 °C 30.05 in /  1017.5 hPa SE 1.2 mph /  1.9 km/h   96 % 0.00 in /  0 mm 0.00 W/m2 OVC
21:39 44.1 °F /  6.7 °C 43.0 °F /  6.1 °C 30.05 in /  1017.5 hPa SE 3.0 mph /  4.8 km/h 1.2 mph /  1.9 km/h 96 % 0.00 in /  0 mm 0.00 W/m2 OVC
21:44 44.2 °F /  6.8 °C 43.1 °F /  6.2 °C 30.05 in /  1017.5 hPa SE 2.3 mph /  3.7 km/h 1.5 mph /  2.4 km/h 96 % 0.00 in /  0 mm 0.00 W/m2 OVC
21:49 44.3 °F /  6.8 °C 43.2 °F /  6.2 °C 30.05 in /  1017.5 hPa SE 1.2 mph /  1.9 km/h   96 % 0.00 in /  0 mm 0.00 W/m2 OVC
21:54 44.3 °F /  6.8 °C 43.2 °F /  6.2 °C 30.05 in /  1017.5 hPa Calm     96 % 0.00 in /  0 mm 0.00 W/m2 OVC
21:59 44.4 °F /  6.9 °C 43.3 °F /  6.3 °C 30.05 in /  1017.5 hPa Calm     96 % 0.00 in /  0 mm 0.00 W/m2 OVC
22:04 44.3 °F /  6.8 °C 43.2 °F /  6.2 °C 30.05 in /  1017.5 hPa Calm     96 % 0.00 in /  0 mm 0.00 W/m2 OVC
22:09 44.2 °F /  6.8 °C 43.1 °F /  6.2 °C 30.05 in /  1017.5 hPa Calm     96 % 0.00 in /  0 mm 0.00 W/m2 OVC
22:14 44.2 °F /  6.8 °C 43.1 °F /  6.2 °C 30.05 in /  1017.5 hPa Calm     96 % 0.00 in /  0 mm 0.00 W/m2 OVC
22:19 44.2 °F /  6.8 °C 43.1 °F /  6.2 °C 30.05 in /  1017.5 hPa Calm     96 % 0.00 in /  0 mm 0.00 W/m2 OVC
22:24 44.1 °F /  6.7 °C 43.0 °F /  6.1 °C 30.04 in /  1017.2 hPa Calm     96 % 0.00 in /  0 mm 0.00 W/m2 OVC
22:29 44.1 °F /  6.7 °C 43.0 °F /  6.1 °C 30.04 in /  1017.2 hPa Calm     96 % 0.00 in /  0 mm 0.00 W/m2 OVC
22:34 44.2 °F /  6.8 °C 43.1 °F /  6.2 °C 30.04 in /  1017.2 hPa Calm     96 % 0.00 in /  0 mm 0.00 W/m2 OVC
22:39 44.2 °F /  6.8 °C 43.1 °F /  6.2 °C 30.04 in /  1017.2 hPa Calm     96 % 0.00 in /  0 mm 0.00 W/m2 OVC
22:44 44.2 °F /  6.8 °C 43.1 °F /  6.2 °C 30.04 in /  1017.2 hPa Calm     96 % 0.00 in /  0 mm 0.00 W/m2 OVC
22:49 44.2 °F /  6.8 °C 43.1 °F /  6.2 °C 30.04 in /  1017.2 hPa Calm     96 % 0.00 in /  0 mm 0.00 W/m2 OVC
22:54 44.2 °F /  6.8 °C 43.1 °F /  6.2 °C 30.04 in /  1017.2 hPa Calm     96 % 0.00 in /  0 mm 0.00 W/m2 OVC
22:59 44.3 °F /  6.8 °C 43.2 °F /  6.2 °C 30.04 in /  1017.2 hPa Calm     96 % 0.00 in /  0 mm 0.00 W/m2 OVC
23:04 44.3 °F /  6.8 °C 43.2 °F /  6.2 °C 30.03 in /  1016.8 hPa Calm     96 % 0.00 in /  0 mm 0.00 W/m2 OVC
23:09 44.3 °F /  6.8 °C 43.2 °F /  6.2 °C 30.03 in /  1016.8 hPa Calm     96 % 0.00 in /  0 mm 0.00 W/m2 OVC
23:14 44.4 °F /  6.9 °C 43.3 °F /  6.3 °C 30.03 in /  1016.8 hPa Calm     96 % 0.00 in /  0 mm 0.00 W/m2 OVC
23:19 44.4 °F /  6.9 °C 43.3 °F /  6.3 °C 30.03 in /  1016.8 hPa Calm     96 % 0.00 in /  0 mm 0.00 W/m2 OVC
23:24 44.4 °F /  6.9 °C 43.3 °F /  6.3 °C 30.03 in /  1016.8 hPa Calm     96 % 0.00 in /  0 mm 0.00 W/m2 OVC
23:29 44.4 °F /  6.9 °C 43.3 °F /  6.3 °C 30.02 in /  1016.5 hPa Calm     96 % 0.00 in /  0 mm 0.00 W/m2 OVC
23:34 44.4 °F /  6.9 °C 43.3 °F /  6.3 °C 30.02 in /  1016.5 hPa Calm     96 % 0.00 in /  0 mm 0.00 W/m2 OVC
23:39 44.5 °F /  6.9 °C 43.4 °F /  6.3 °C 30.02 in /  1016.5 hPa Calm     96 % 0.00 in /  0 mm 0.00 W/m2 OVC
23:44 44.5 °F /  6.9 °C 43.4 °F /  6.3 °C 30.02 in /  1016.5 hPa Calm     96 % 0.00 in /  0 mm 0.00 W/m2 OVC
23:49 44.5 °F /  6.9 °C 43.4 °F /  6.3 °C 30.02 in /  1016.5 hPa Calm     96 % 0.00 in /  0 mm 0.00 W/m2 OVC
23:54 44.6 °F /  7 °C 43.5 °F /  6.4 °C 30.02 in /  1016.5 hPa Calm     96 % 0.00 in /  0 mm 0.00 W/m2 OVC
23:59 44.6 °F /  7 °C 43.5 °F /  6.4 °C 30.02 in /  1016.5 hPa Calm     96 % 0.00 in /  0 mm 0.00 W/m2 OVC
Murfreesboro Weather Live
Compliments of Weather Underground - 2.5 mb